createdAt,value
2022-12-25T00:00:00.262Z,10.0
2022-12-25T00:01:04.785Z,10.0
2022-12-25T00:02:00.490Z,10.0
2022-12-25T00:03:00.547Z,10.0
2022-12-25T00:04:00.334Z,10.0
2022-12-25T00:05:00.286Z,10.8
2022-12-25T00:06:00.264Z,10.8
2022-12-25T00:07:00.242Z,10.8
2022-12-25T00:08:00.234Z,10.8
2022-12-25T00:09:00.290Z,10.8
2022-12-25T00:10:00.234Z,10.1
2022-12-25T00:11:02.378Z,10.1
2022-12-25T00:12:00.286Z,10.1
2022-12-25T00:13:00.270Z,10.1
2022-12-25T00:14:00.386Z,10.1
2022-12-25T00:15:00.348Z,11.0
2022-12-25T00:16:05.402Z,11.0
2022-12-25T00:17:00.218Z,11.0
2022-12-25T00:18:00.274Z,11.0
2022-12-25T00:19:00.247Z,11.0
2022-12-25T00:20:00.240Z,11.3
2022-12-25T00:21:03.039Z,11.3
2022-12-25T00:22:00.239Z,11.3
2022-12-25T00:23:00.259Z,11.3
2022-12-25T00:24:00.518Z,11.3
2022-12-25T00:25:00.234Z,11.4
2022-12-25T00:26:04.840Z,11.4
2022-12-25T00:27:00.247Z,11.4
2022-12-25T00:28:00.265Z,11.4
2022-12-25T00:29:00.290Z,11.4
2022-12-25T00:30:00.457Z,12.6
2022-12-25T00:31:04.807Z,12.6
2022-12-25T00:32:00.403Z,12.6
2022-12-25T00:33:00.295Z,12.6
2022-12-25T00:34:00.280Z,12.6
2022-12-25T00:35:00.226Z,10.8
2022-12-25T00:36:01.175Z,10.8
2022-12-25T00:37:00.247Z,10.8
2022-12-25T00:38:00.517Z,10.8
2022-12-25T00:39:00.771Z,10.8
2022-12-25T00:40:00.285Z,12.0
2022-12-25T00:41:03.696Z,12.0
2022-12-25T00:42:00.335Z,12.0
2022-12-25T00:43:00.250Z,12.0
2022-12-25T00:44:00.268Z,12.0
2022-12-25T00:45:00.244Z,12.9
2022-12-25T00:46:02.374Z,12.9
2022-12-25T00:47:00.671Z,12.9
2022-12-25T00:48:00.269Z,12.9
2022-12-25T00:49:00.641Z,12.9
2022-12-25T00:50:00.235Z,11.2
2022-12-25T00:51:03.031Z,11.2
2022-12-25T00:52:00.456Z,11.2
2022-12-25T00:53:00.294Z,11.2
2022-12-25T00:54:00.686Z,11.2
2022-12-25T00:55:00.219Z,11.0
2022-12-25T00:56:03.992Z,11.0
2022-12-25T00:57:00.429Z,11.0
2022-12-25T00:58:00.243Z,11.0
2022-12-25T00:59:00.444Z,11.0
2022-12-25T01:00:00.232Z,14.5
2022-12-25T01:01:01.448Z,14.5
2022-12-25T01:02:01.051Z,14.5
2022-12-25T01:03:00.444Z,14.5
2022-12-25T01:04:00.401Z,14.5
2022-12-25T01:05:00.265Z,12.6
2022-12-25T01:06:02.746Z,12.6
2022-12-25T01:07:00.209Z,12.6
2022-12-25T01:08:00.254Z,12.6
2022-12-25T01:09:00.238Z,12.6
2022-12-25T01:10:00.221Z,14.1
2022-12-25T01:11:04.031Z,14.1
2022-12-25T01:12:00.269Z,14.1
2022-12-25T01:13:00.283Z,14.1
2022-12-25T01:14:00.686Z,14.1
2022-12-25T01:15:00.431Z,13.3
2022-12-25T01:16:09.240Z,13.3
2022-12-25T01:17:00.220Z,13.3
2022-12-25T01:18:04.112Z,13.3
2022-12-25T01:19:00.674Z,13.3
2022-12-25T01:20:00.216Z,13.2
2022-12-25T01:21:09.833Z,13.2
2022-12-25T01:22:00.242Z,13.2
2022-12-25T01:23:00.252Z,13.2
2022-12-25T01:24:00.285Z,13.2
2022-12-25T01:25:00.420Z,12.7
2022-12-25T01:26:04.147Z,12.7
2022-12-25T01:27:00.241Z,12.7
2022-12-25T01:28:00.229Z,12.7
2022-12-25T01:29:00.240Z,12.7
2022-12-25T01:30:00.269Z,11.3
2022-12-25T01:31:00.575Z,11.3
2022-12-25T01:32:00.414Z,11.3
2022-12-25T01:33:00.288Z,11.3
2022-12-25T01:34:00.221Z,11.3
2022-12-25T01:35:00.219Z,13.9
2022-12-25T01:36:00.339Z,13.9
2022-12-25T01:37:00.437Z,13.9
2022-12-25T01:38:00.304Z,13.9
2022-12-25T01:39:00.352Z,13.9
2022-12-25T01:40:00.308Z,11.6
2022-12-25T01:41:00.215Z,11.6
2022-12-25T01:42:00.282Z,11.6
2022-12-25T01:43:00.262Z,11.6
2022-12-25T01:44:04.871Z,11.6
2022-12-25T01:45:17.723Z,14.2
2022-12-25T01:46:00.475Z,14.2
2022-12-25T01:47:00.605Z,14.2
2022-12-25T01:48:03.672Z,14.2
2022-12-25T01:49:03.952Z,14.2
2022-12-25T01:50:00.269Z,11.9
2022-12-25T01:51:05.825Z,11.9
2022-12-25T01:52:05.016Z,11.9
2022-12-25T01:53:01.582Z,11.9
2022-12-25T01:54:04.634Z,11.9
2022-12-25T01:55:02.871Z,12.2
2022-12-25T01:56:05.992Z,12.2
2022-12-25T01:57:02.719Z,12.2
2022-12-25T01:58:00.530Z,12.2
2022-12-25T01:59:01.734Z,12.2
2022-12-25T02:00:01.417Z,11.4
2022-12-25T02:01:00.400Z,11.4
2022-12-25T02:02:00.536Z,11.4
2022-12-25T02:03:00.835Z,11.4
2022-12-25T02:04:15.697Z,11.0
2022-12-25T02:05:16.381Z,11.0
2022-12-25T02:06:02.937Z,11.0
2022-12-25T02:07:00.382Z,11.0
2022-12-25T02:08:07.013Z,11.0
2022-12-25T02:09:00.663Z,11.0
2022-12-25T02:10:00.352Z,11.1
2022-12-25T02:11:00.224Z,11.1
2022-12-25T02:12:00.509Z,11.1
2022-12-25T02:13:01.156Z,11.1
2022-12-25T02:14:00.438Z,11.1
2022-12-25T02:15:07.504Z,12.3
2022-12-25T02:16:08.299Z,12.3
2022-12-25T02:17:17.816Z,12.3
2022-12-25T02:18:09.151Z,12.3
2022-12-25T02:19:10.101Z,12.3
2022-12-25T02:20:18.317Z,12.3
2022-12-25T02:21:06.257Z,12.3
2022-12-25T02:22:11.088Z,12.3
2022-12-25T02:23:20.167Z,12.3
2022-12-25T02:24:15.039Z,12.1
2022-12-25T02:25:12.444Z,12.1
2022-12-25T02:26:20.115Z,12.1
2022-12-25T02:27:10.807Z,12.1
2022-12-25T02:28:10.176Z,12.1
2022-12-25T02:29:10.185Z,11.3
2022-12-25T02:30:06.036Z,11.3
2022-12-25T02:31:05.345Z,11.3
2022-12-25T02:32:14.561Z,11.3
2022-12-25T02:33:06.217Z,11.3
2022-12-25T02:34:10.162Z,14.0
2022-12-25T02:35:06.565Z,14.0
2022-12-25T02:36:05.822Z,14.0
2022-12-25T02:37:05.508Z,14.0
2022-12-25T02:38:06.885Z,14.0
2022-12-25T02:39:02.809Z,13.2
2022-12-25T02:40:08.378Z,13.2
2022-12-25T02:41:07.286Z,13.2
2022-12-25T02:42:06.145Z,13.2
2022-12-25T02:43:04.032Z,13.2
2022-12-25T02:44:05.599Z,14.1
2022-12-25T02:45:00.699Z,14.1
2022-12-25T02:46:05.738Z,14.1
2022-12-25T02:47:02.988Z,14.1
2022-12-25T02:48:00.632Z,14.1
2022-12-25T02:49:04.569Z,15.0
2022-12-25T02:50:01.214Z,15.0
2022-12-25T02:51:03.718Z,15.0
2022-12-25T02:52:05.962Z,15.0
2022-12-25T02:53:02.570Z,15.0
2022-12-25T02:54:04.114Z,16.6
2022-12-25T02:55:09.209Z,16.6
2022-12-25T02:56:00.401Z,16.6
2022-12-25T02:57:04.303Z,16.6
2022-12-25T02:58:05.900Z,16.6
2022-12-25T02:59:00.917Z,13.8
2022-12-25T03:00:02.356Z,13.8
2022-12-25T03:01:04.907Z,13.8
2022-12-25T03:02:02.541Z,13.8
2022-12-25T03:03:03.323Z,13.8
2022-12-25T03:04:04.702Z,16.9
2022-12-25T03:05:05.997Z,16.9
2022-12-25T03:06:02.853Z,16.9
2022-12-25T03:07:08.993Z,16.9
2022-12-25T03:08:05.659Z,16.9
2022-12-25T03:09:03.905Z,14.2
2022-12-25T03:10:04.049Z,14.2
2022-12-25T03:11:04.042Z,14.2
2022-12-25T03:12:07.576Z,14.2
2022-12-25T03:13:08.607Z,14.2
2022-12-25T03:14:04.797Z,15.3
2022-12-25T03:15:00.781Z,15.3
2022-12-25T03:16:00.400Z,15.3
2022-12-25T03:17:00.367Z,15.3
2022-12-25T03:18:04.082Z,15.3
2022-12-25T03:19:00.633Z,15.9
2022-12-25T03:20:00.543Z,15.9
2022-12-25T03:21:00.465Z,15.9
2022-12-25T03:22:02.450Z,15.9
2022-12-25T03:23:00.983Z,15.9
2022-12-25T03:24:00.742Z,14.1
2022-12-25T03:25:00.236Z,14.1
2022-12-25T03:26:00.229Z,14.1
2022-12-25T03:27:00.294Z,14.1
2022-12-25T03:28:00.859Z,14.1
2022-12-25T03:29:00.423Z,16.8
2022-12-25T03:30:01.118Z,16.8
2022-12-25T03:31:10.175Z,16.8
2022-12-25T03:32:19.742Z,16.8
2022-12-25T03:33:37.122Z,16.8
2022-12-25T03:34:12.927Z,15.6
2022-12-25T03:35:11.187Z,15.6
2022-12-25T03:36:20.137Z,15.6
2022-12-25T03:37:03.487Z,15.6
2022-12-25T03:38:15.325Z,15.6
2022-12-25T03:39:09.486Z,13.2
2022-12-25T03:40:17.655Z,13.2
2022-12-25T03:41:12.081Z,13.2
2022-12-25T03:42:03.284Z,13.2
2022-12-25T03:43:16.453Z,13.2
2022-12-25T03:44:01.219Z,15.7
2022-12-25T03:45:10.974Z,15.7
2022-12-25T03:46:06.177Z,15.7
2022-12-25T03:47:08.782Z,15.7
2022-12-25T03:48:03.089Z,15.7
2022-12-25T03:49:09.900Z,13.4
2022-12-25T03:50:07.493Z,13.4
2022-12-25T03:51:06.192Z,13.4
2022-12-25T03:52:03.892Z,13.4
2022-12-25T03:53:04.102Z,13.4
2022-12-25T03:54:05.789Z,15.5
2022-12-25T03:55:04.598Z,15.5
2022-12-25T03:56:02.261Z,15.5
2022-12-25T03:57:00.455Z,15.5
2022-12-25T03:58:00.410Z,15.5
2022-12-25T03:59:00.278Z,19.3
2022-12-25T04:00:00.266Z,19.3
2022-12-25T04:01:00.475Z,19.3
2022-12-25T04:02:00.421Z,19.3
2022-12-25T04:03:00.266Z,19.3
2022-12-25T04:04:00.339Z,20.8
2022-12-25T04:05:00.209Z,20.8
2022-12-25T04:06:00.311Z,20.8
2022-12-25T04:07:00.238Z,20.8
2022-12-25T04:08:00.220Z,20.8
2022-12-25T04:09:00.224Z,12.8
2022-12-25T04:10:00.269Z,12.8
2022-12-25T04:11:00.238Z,12.8
2022-12-25T04:12:02.772Z,12.8
2022-12-25T04:13:00.352Z,12.8
2022-12-25T04:14:00.279Z,15.0
2022-12-25T04:15:00.223Z,15.0
2022-12-25T04:16:00.469Z,15.0
2022-12-25T04:17:00.259Z,15.0
2022-12-25T04:18:00.233Z,15.0
2022-12-25T04:19:00.299Z,15.1
2022-12-25T04:20:00.237Z,15.1
2022-12-25T04:21:00.228Z,15.1
2022-12-25T04:22:00.263Z,15.1
2022-12-25T04:23:00.264Z,15.1
2022-12-25T04:24:00.272Z,13.9
2022-12-25T04:25:00.239Z,13.9
2022-12-25T04:26:00.238Z,13.9
2022-12-25T04:27:00.239Z,13.9
2022-12-25T04:28:01.544Z,13.9
2022-12-25T04:29:00.226Z,12.7
2022-12-25T04:30:00.256Z,12.7
2022-12-25T04:31:00.391Z,12.7
2022-12-25T04:32:00.367Z,12.7
2022-12-25T04:33:00.232Z,12.7
2022-12-25T04:34:00.289Z,16.6
2022-12-25T04:35:00.262Z,16.6
2022-12-25T04:36:00.255Z,16.6
2022-12-25T04:37:00.254Z,16.6
2022-12-25T04:38:00.240Z,16.6
2022-12-25T04:39:00.216Z,15.2
2022-12-25T04:40:00.286Z,15.2
2022-12-25T04:41:01.471Z,15.2
2022-12-25T04:42:00.244Z,15.2
2022-12-25T04:43:00.241Z,15.2
2022-12-25T04:44:00.237Z,16.6
2022-12-25T04:45:00.285Z,16.6
2022-12-25T04:46:01.283Z,16.6
2022-12-25T04:47:04.525Z,16.6
2022-12-25T04:48:00.223Z,16.6
2022-12-25T04:49:00.214Z,15.0
2022-12-25T04:50:00.247Z,15.0
2022-12-25T04:51:10.175Z,15.0
2022-12-25T04:52:00.293Z,15.0
2022-12-25T04:53:00.267Z,15.0
2022-12-25T04:54:00.242Z,15.7
2022-12-25T04:55:00.241Z,15.7
2022-12-25T04:56:00.753Z,15.7
2022-12-25T04:57:00.236Z,15.7
2022-12-25T04:58:00.216Z,15.7
2022-12-25T04:59:00.310Z,15.1
2022-12-25T05:00:00.295Z,15.1
2022-12-25T05:01:01.253Z,15.1
2022-12-25T05:02:00.389Z,15.1
2022-12-25T05:03:00.691Z,15.1
2022-12-25T05:04:00.379Z,19.0
2022-12-25T05:05:00.283Z,19.0
2022-12-25T05:06:00.890Z,19.0
2022-12-25T05:07:00.287Z,19.0
2022-12-25T05:08:00.235Z,19.0
2022-12-25T05:09:00.281Z,17.9
2022-12-25T05:10:00.237Z,17.9
2022-12-25T05:11:04.883Z,17.9
2022-12-25T05:12:00.249Z,17.9
2022-12-25T05:13:00.216Z,17.9
2022-12-25T05:14:00.234Z,18.7
2022-12-25T05:15:00.300Z,18.7
2022-12-25T05:16:04.005Z,18.7
2022-12-25T05:17:00.693Z,18.7
2022-12-25T05:18:00.246Z,18.7
2022-12-25T05:19:01.034Z,15.9
2022-12-25T05:20:00.261Z,15.9
2022-12-25T05:21:00.407Z,15.9
2022-12-25T05:22:00.449Z,15.9
2022-12-25T05:23:00.230Z,15.9
2022-12-25T05:24:00.215Z,17.2
2022-12-25T05:25:00.251Z,17.2
2022-12-25T05:26:04.631Z,17.2
2022-12-25T05:27:00.239Z,17.2
2022-12-25T05:28:00.216Z,17.2
2022-12-25T05:29:00.279Z,19.3
2022-12-25T05:30:00.238Z,19.3
2022-12-25T05:31:00.385Z,19.3
2022-12-25T05:32:00.378Z,19.3
2022-12-25T05:33:00.951Z,19.3
2022-12-25T05:34:00.301Z,14.4
2022-12-25T05:35:00.260Z,14.4
2022-12-25T05:36:02.735Z,14.4
2022-12-25T05:37:00.273Z,14.4
2022-12-25T05:38:00.218Z,14.4
2022-12-25T05:39:00.260Z,15.7
2022-12-25T05:40:00.857Z,15.7
2022-12-25T05:41:00.320Z,15.7
2022-12-25T05:42:00.246Z,15.7
2022-12-25T05:43:00.215Z,15.7
2022-12-25T05:44:00.399Z,16.1
2022-12-25T05:45:00.217Z,16.1
2022-12-25T05:46:05.619Z,16.1
2022-12-25T05:47:00.346Z,16.1
2022-12-25T05:48:00.335Z,16.1
2022-12-25T05:49:00.213Z,20.6
2022-12-25T05:50:00.263Z,20.6
2022-12-25T05:51:03.068Z,20.6
2022-12-25T05:52:00.291Z,20.6
2022-12-25T05:53:05.976Z,20.6
2022-12-25T05:54:00.280Z,16.1
2022-12-25T05:55:00.271Z,16.1
2022-12-25T05:56:02.234Z,16.1
2022-12-25T05:57:00.782Z,16.1
2022-12-25T05:58:00.256Z,16.1
2022-12-25T05:59:00.229Z,16.2
2022-12-25T06:00:00.444Z,16.2
2022-12-25T06:01:00.733Z,16.2
2022-12-25T06:02:00.420Z,16.2
2022-12-25T06:03:00.698Z,16.2
2022-12-25T06:04:00.305Z,14.4
2022-12-25T06:05:00.241Z,14.4
2022-12-25T06:06:02.088Z,14.4
2022-12-25T06:07:00.240Z,14.4
2022-12-25T06:08:00.217Z,14.4
2022-12-25T06:09:00.248Z,18.7
2022-12-25T06:10:00.262Z,18.7
2022-12-25T06:11:02.786Z,18.7
2022-12-25T06:12:00.265Z,18.7
2022-12-25T06:13:00.232Z,18.7
2022-12-25T06:14:00.215Z,18.1
2022-12-25T06:15:00.261Z,18.1
2022-12-25T06:16:04.909Z,18.1
2022-12-25T06:17:00.537Z,18.1
2022-12-25T06:18:00.313Z,18.1
2022-12-25T06:19:00.270Z,14.2
2022-12-25T06:20:00.323Z,14.2
2022-12-25T06:21:00.249Z,14.2
2022-12-25T06:22:00.257Z,14.2
2022-12-25T06:23:00.592Z,14.2
2022-12-25T06:24:00.586Z,18.0
2022-12-25T06:25:00.541Z,18.0
2022-12-25T06:26:02.472Z,18.0
2022-12-25T06:27:00.237Z,18.0
2022-12-25T06:28:00.283Z,18.0
2022-12-25T06:29:00.295Z,17.1
2022-12-25T06:30:00.356Z,17.1
2022-12-25T06:31:15.600Z,17.1
2022-12-25T06:32:00.644Z,17.1
2022-12-25T06:33:00.254Z,17.1
2022-12-25T06:34:00.334Z,17.7
2022-12-25T06:35:00.335Z,17.7
2022-12-25T06:36:10.193Z,17.7
2022-12-25T06:37:00.293Z,17.7
2022-12-25T06:38:00.243Z,17.7
2022-12-25T06:39:00.362Z,17.7
2022-12-25T06:40:00.323Z,17.7
2022-12-25T06:41:05.727Z,17.7
2022-12-25T06:42:00.327Z,17.7
2022-12-25T06:43:00.274Z,17.7
2022-12-25T06:44:00.718Z,16.8
2022-12-25T06:45:00.282Z,16.8
2022-12-25T06:46:02.307Z,16.8
2022-12-25T06:47:00.232Z,16.8
2022-12-25T06:48:00.937Z,16.8
2022-12-25T06:49:00.277Z,19.1
2022-12-25T06:50:00.244Z,19.1
2022-12-25T06:51:01.662Z,19.1
2022-12-25T06:52:00.269Z,19.1
2022-12-25T06:53:00.217Z,19.1
2022-12-25T06:54:00.520Z,19.4
2022-12-25T06:55:00.248Z,19.4
2022-12-25T06:56:03.226Z,19.4
2022-12-25T06:57:00.228Z,19.4
2022-12-25T06:58:00.213Z,19.4
2022-12-25T06:59:02.889Z,18.7
2022-12-25T07:00:00.284Z,18.7
2022-12-25T07:01:06.397Z,18.7
2022-12-25T07:02:00.417Z,18.7
2022-12-25T07:03:00.513Z,18.7
2022-12-25T07:04:04.417Z,18.1
2022-12-25T07:05:00.866Z,18.1
2022-12-25T07:06:00.237Z,18.1
2022-12-25T07:07:08.008Z,18.1
2022-12-25T07:08:00.289Z,18.1
2022-12-25T07:09:00.227Z,16.4
2022-12-25T07:10:00.322Z,16.4
2022-12-25T07:11:00.252Z,16.4
2022-12-25T07:12:03.353Z,16.4
2022-12-25T07:13:00.227Z,16.4
2022-12-25T07:14:00.238Z,17.7
2022-12-25T07:15:00.233Z,17.7
2022-12-25T07:16:02.423Z,17.7
2022-12-25T07:17:00.339Z,17.7
2022-12-25T07:18:00.444Z,17.7
2022-12-25T07:19:00.339Z,17.4
2022-12-25T07:20:00.634Z,17.4
2022-12-25T07:21:09.657Z,17.4
2022-12-25T07:22:00.216Z,17.4
2022-12-25T07:23:00.213Z,17.4
2022-12-25T07:24:00.308Z,18.6
2022-12-25T07:25:00.246Z,18.6
2022-12-25T07:26:01.320Z,18.6
2022-12-25T07:27:00.287Z,18.6
2022-12-25T07:28:00.213Z,18.6
2022-12-25T07:29:00.241Z,19.1
2022-12-25T07:30:00.257Z,19.1
2022-12-25T07:31:03.553Z,19.1
2022-12-25T07:32:00.313Z,19.1
2022-12-25T07:33:00.237Z,19.1
2022-12-25T07:34:00.236Z,19.8
2022-12-25T07:35:00.234Z,19.8
2022-12-25T07:36:01.018Z,19.8
2022-12-25T07:37:00.223Z,19.8
2022-12-25T07:38:00.221Z,19.8
2022-12-25T07:39:00.282Z,17.2
2022-12-25T07:40:00.284Z,17.2
2022-12-25T07:41:00.256Z,17.2
2022-12-25T07:42:00.292Z,17.2
2022-12-25T07:43:00.484Z,17.2
2022-12-25T07:44:00.245Z,17.6
2022-12-25T07:45:00.248Z,17.6
2022-12-25T07:46:00.350Z,17.6
2022-12-25T07:47:00.233Z,17.6
2022-12-25T07:48:05.302Z,17.6
2022-12-25T07:49:00.318Z,20.2
2022-12-25T07:50:00.238Z,20.2
2022-12-25T07:51:02.917Z,20.2
2022-12-25T07:52:00.240Z,20.2
2022-12-25T07:53:00.206Z,20.2
2022-12-25T07:54:00.315Z,15.5
2022-12-25T07:55:00.262Z,15.5
2022-12-25T07:56:03.143Z,15.5
2022-12-25T07:57:00.212Z,15.5
2022-12-25T07:58:00.219Z,15.5
2022-12-25T07:59:00.272Z,17.1
2022-12-25T08:00:00.262Z,17.1
2022-12-25T08:01:04.292Z,17.1
2022-12-25T08:02:00.526Z,17.1
2022-12-25T08:03:00.396Z,17.1
2022-12-25T08:04:01.283Z,13.3
2022-12-25T08:05:00.266Z,13.3
2022-12-25T08:06:02.328Z,13.3
2022-12-25T08:07:00.257Z,13.3
2022-12-25T08:08:00.219Z,13.3
2022-12-25T08:09:07.977Z,13.5
2022-12-25T08:10:00.663Z,13.5
2022-12-25T08:11:00.343Z,13.5
2022-12-25T08:12:00.305Z,13.5
2022-12-25T08:13:00.209Z,13.5
2022-12-25T08:14:00.542Z,16.0
2022-12-25T08:15:00.252Z,16.0
2022-12-25T08:16:02.888Z,16.0
2022-12-25T08:17:00.325Z,16.0
2022-12-25T08:18:00.241Z,16.0
2022-12-25T08:19:00.324Z,15.4
2022-12-25T08:20:00.237Z,15.4
2022-12-25T08:21:03.839Z,15.4
2022-12-25T08:22:00.307Z,15.4
2022-12-25T08:23:00.235Z,15.4
2022-12-25T08:24:00.279Z,13.4
2022-12-25T08:25:00.245Z,13.4
2022-12-25T08:26:05.065Z,13.4
2022-12-25T08:27:00.293Z,13.4
2022-12-25T08:28:00.213Z,13.4
2022-12-25T08:29:00.219Z,14.6
2022-12-25T08:30:00.307Z,14.6
2022-12-25T08:31:12.940Z,14.6
2022-12-25T08:32:00.368Z,14.6
2022-12-25T08:33:00.232Z,14.6
2022-12-25T08:34:01.830Z,14.5
2022-12-25T08:35:00.231Z,14.5
2022-12-25T08:36:03.395Z,14.5
2022-12-25T08:37:00.216Z,14.5
2022-12-25T08:38:00.611Z,14.5
2022-12-25T08:39:03.052Z,13.5
2022-12-25T08:40:00.334Z,13.5
2022-12-25T08:41:00.446Z,13.5
2022-12-25T08:42:00.277Z,13.5
2022-12-25T08:43:00.300Z,13.5
2022-12-25T08:44:00.218Z,11.8
2022-12-25T08:45:00.257Z,11.8
2022-12-25T08:46:00.928Z,11.8
2022-12-25T08:47:00.229Z,11.8
2022-12-25T08:48:00.255Z,11.8
2022-12-25T08:49:00.210Z,15.5
2022-12-25T08:50:00.401Z,15.5
2022-12-25T08:51:01.346Z,15.5
2022-12-25T08:52:00.247Z,15.5
2022-12-25T08:53:00.443Z,15.5
2022-12-25T08:54:00.286Z,13.2
2022-12-25T08:55:00.347Z,13.2
2022-12-25T08:56:01.932Z,13.2
2022-12-25T08:57:02.870Z,13.2
2022-12-25T08:58:00.221Z,13.2
2022-12-25T08:59:00.223Z,12.1
2022-12-25T09:00:00.268Z,12.1
2022-12-25T09:01:00.700Z,12.1
2022-12-25T09:02:00.373Z,12.1
2022-12-25T09:03:00.521Z,12.1
2022-12-25T09:04:00.255Z,15.8
2022-12-25T09:05:00.237Z,15.8
2022-12-25T09:06:04.088Z,15.8
2022-12-25T09:07:00.210Z,15.8
2022-12-25T09:08:00.237Z,15.8
2022-12-25T09:09:00.250Z,34.6
2022-12-25T09:10:00.269Z,34.6
2022-12-25T09:11:03.496Z,34.6
2022-12-25T09:12:00.311Z,34.6
2022-12-25T09:13:00.215Z,34.6
2022-12-25T09:14:00.253Z,14.6
2022-12-25T09:15:00.238Z,14.6
2022-12-25T09:16:04.590Z,14.6
2022-12-25T09:17:00.218Z,14.6
2022-12-25T09:18:00.223Z,15.2
2022-12-25T09:19:00.322Z,15.2
2022-12-25T09:20:00.303Z,15.2
2022-12-25T09:21:02.466Z,15.2
2022-12-25T09:22:00.283Z,15.2
2022-12-25T09:23:00.255Z,14.6
2022-12-25T09:24:00.251Z,14.6
2022-12-25T09:25:00.305Z,14.6
2022-12-25T09:26:02.875Z,14.6
2022-12-25T09:27:00.220Z,14.6
2022-12-25T09:28:00.221Z,13.8
2022-12-25T09:29:00.234Z,13.8
2022-12-25T09:30:00.259Z,13.8
2022-12-25T09:31:00.696Z,13.8
2022-12-25T09:32:00.230Z,13.8
2022-12-25T09:33:00.237Z,16.9
2022-12-25T09:34:00.262Z,16.9
2022-12-25T09:35:00.385Z,16.9
2022-12-25T09:36:03.084Z,16.9
2022-12-25T09:37:00.582Z,16.9
2022-12-25T09:38:00.228Z,14.0
2022-12-25T09:39:00.413Z,14.0
2022-12-25T09:40:00.567Z,14.0
2022-12-25T09:41:11.165Z,14.0
2022-12-25T09:42:04.147Z,14.0
2022-12-25T09:43:02.588Z,15.1
2022-12-25T09:44:08.921Z,15.1
2022-12-25T09:45:04.700Z,15.1
2022-12-25T09:46:01.502Z,15.1
2022-12-25T09:47:05.421Z,15.1
2022-12-25T09:48:00.317Z,14.3
2022-12-25T09:49:20.136Z,14.3
2022-12-25T09:50:07.329Z,14.3
2022-12-25T09:51:07.375Z,14.3
2022-12-25T09:52:07.333Z,14.3
2022-12-25T09:53:06.173Z,15.0
2022-12-25T09:54:09.717Z,15.0
2022-12-25T09:55:13.387Z,15.0
2022-12-25T09:56:05.703Z,15.0
2022-12-25T09:57:00.619Z,15.0
2022-12-25T09:58:07.687Z,15.8
2022-12-25T09:59:00.298Z,15.8
2022-12-25T10:00:00.318Z,15.8
2022-12-25T10:01:15.961Z,15.8
2022-12-25T10:02:17.503Z,15.8
2022-12-25T10:03:10.347Z,16.6
2022-12-25T10:04:10.186Z,16.6
2022-12-25T10:05:11.728Z,16.6
2022-12-25T10:06:16.546Z,16.6
2022-12-25T10:07:12.430Z,16.6
2022-12-25T10:08:17.517Z,17.2
2022-12-25T10:09:20.139Z,17.2
2022-12-25T10:10:16.275Z,17.2
2022-12-25T10:11:13.845Z,17.2
2022-12-25T10:12:07.676Z,17.2
2022-12-25T10:13:17.568Z,18.2
2022-12-25T10:14:20.142Z,18.2
2022-12-25T10:15:18.820Z,18.2
2022-12-25T10:16:10.222Z,18.2
2022-12-25T10:17:11.189Z,18.2
2022-12-25T10:18:20.182Z,15.7
2022-12-25T10:19:13.425Z,15.7
2022-12-25T10:20:11.183Z,15.7
2022-12-25T10:21:04.710Z,15.7
2022-12-25T10:22:07.806Z,15.7
2022-12-25T10:23:08.566Z,19.1
2022-12-25T10:24:05.759Z,19.1
2022-12-25T10:25:01.716Z,19.1
2022-12-25T10:26:00.977Z,19.1
2022-12-25T10:27:03.919Z,19.1
2022-12-25T10:28:04.413Z,14.9
2022-12-25T10:29:11.071Z,14.9
2022-12-25T10:30:01.083Z,14.9
2022-12-25T10:31:14.607Z,14.9
2022-12-25T10:32:00.488Z,14.9
2022-12-25T10:33:00.498Z,17.3
2022-12-25T10:34:00.759Z,17.3
2022-12-25T10:35:00.320Z,17.3
2022-12-25T10:36:00.716Z,17.3
2022-12-25T10:37:00.241Z,17.3
2022-12-25T10:38:05.441Z,16.8
2022-12-25T10:39:00.876Z,16.8
2022-12-25T10:40:00.233Z,16.8
2022-12-25T10:41:20.153Z,16.8
2022-12-25T10:42:09.707Z,16.8
2022-12-25T10:43:10.946Z,16.1
2022-12-25T10:44:12.508Z,16.1
2022-12-25T10:45:03.199Z,16.1
2022-12-25T10:46:00.400Z,16.1
2022-12-25T10:47:02.974Z,16.1
2022-12-25T10:48:07.090Z,17.4
2022-12-25T10:49:01.800Z,17.4
2022-12-25T10:50:11.491Z,17.4
2022-12-25T10:51:00.767Z,17.4
2022-12-25T10:52:01.531Z,17.4
2022-12-25T10:53:03.418Z,18.8
2022-12-25T10:54:03.293Z,18.8
2022-12-25T10:55:09.624Z,18.8
2022-12-25T10:56:02.939Z,18.8
2022-12-25T10:57:02.611Z,18.8
2022-12-25T10:58:00.296Z,16.2
2022-12-25T10:59:05.143Z,16.2
2022-12-25T11:00:00.250Z,16.2
2022-12-25T11:01:05.509Z,16.2
2022-12-25T11:02:13.554Z,16.2
2022-12-25T11:03:00.822Z,18.2
2022-12-25T11:04:00.344Z,18.2
2022-12-25T11:05:02.170Z,18.2
2022-12-25T11:06:00.780Z,18.2
2022-12-25T11:07:07.068Z,18.2
2022-12-25T11:08:01.803Z,15.4
2022-12-25T11:09:01.508Z,15.4
2022-12-25T11:10:06.507Z,15.4
2022-12-25T11:11:03.419Z,15.4
2022-12-25T11:12:00.583Z,15.4
2022-12-25T11:13:01.422Z,15.1
2022-12-25T11:14:01.664Z,15.1
2022-12-25T11:15:04.251Z,15.1
2022-12-25T11:16:01.360Z,15.1
2022-12-25T11:17:08.897Z,15.1
2022-12-25T11:18:00.355Z,16.5
2022-12-25T11:19:01.131Z,16.5
2022-12-25T11:20:00.691Z,16.5
2022-12-25T11:21:12.100Z,16.5
2022-12-25T11:22:01.515Z,16.5
2022-12-25T11:23:00.422Z,16.2
2022-12-25T11:24:03.390Z,16.2
2022-12-25T11:25:11.218Z,16.2
2022-12-25T11:26:03.726Z,16.2
2022-12-25T11:27:03.883Z,16.2
2022-12-25T11:28:03.844Z,15.6
2022-12-25T11:29:01.116Z,15.6
2022-12-25T11:30:01.899Z,15.6
2022-12-25T11:31:07.811Z,15.6
2022-12-25T11:32:02.852Z,15.6
2022-12-25T11:33:06.598Z,17.1
2022-12-25T11:34:06.732Z,17.1
2022-12-25T11:35:01.524Z,17.1
2022-12-25T11:36:05.148Z,17.1
2022-12-25T11:37:02.112Z,17.1
2022-12-25T11:38:00.279Z,15.1
2022-12-25T11:39:10.062Z,15.1
2022-12-25T11:40:01.136Z,15.1
2022-12-25T11:41:03.437Z,15.1
2022-12-25T11:42:13.459Z,15.1
2022-12-25T11:43:13.850Z,16.4
2022-12-25T11:44:06.930Z,16.4
2022-12-25T11:45:12.438Z,16.4
2022-12-25T11:46:12.175Z,16.4
2022-12-25T11:47:06.403Z,16.4
2022-12-25T11:48:08.762Z,17.0
2022-12-25T11:49:04.454Z,17.0
2022-12-25T11:50:06.440Z,17.0
2022-12-25T11:51:02.326Z,17.0
2022-12-25T11:52:00.291Z,17.0
2022-12-25T11:53:06.013Z,15.0
2022-12-25T11:54:15.379Z,15.0
2022-12-25T11:55:05.597Z,15.0
2022-12-25T11:56:07.478Z,15.0
2022-12-25T11:57:04.261Z,15.0
2022-12-25T11:58:07.801Z,18.1
2022-12-25T11:59:11.475Z,18.1
2022-12-25T12:00:05.393Z,18.1
2022-12-25T12:01:04.931Z,18.1
2022-12-25T12:02:20.260Z,18.1
2022-12-25T12:03:05.675Z,13.3
2022-12-25T12:04:02.552Z,13.3
2022-12-25T12:05:07.124Z,13.3
2022-12-25T12:06:03.756Z,13.3
2022-12-25T12:07:07.148Z,13.3
2022-12-25T12:08:02.716Z,15.7
2022-12-25T12:09:20.144Z,15.7
2022-12-25T12:10:14.963Z,15.7
2022-12-25T12:11:20.138Z,15.7
2022-12-25T12:12:07.566Z,15.7
2022-12-25T12:13:17.825Z,14.7
2022-12-25T12:14:10.865Z,14.7
2022-12-25T12:15:02.250Z,14.7
2022-12-25T12:16:00.377Z,14.7
2022-12-25T12:17:00.405Z,14.7
2022-12-25T12:18:20.204Z,14.9
2022-12-25T12:19:09.838Z,14.9
2022-12-25T12:20:20.179Z,14.9
2022-12-25T12:21:01.549Z,14.9
2022-12-25T12:22:02.933Z,14.9
2022-12-25T12:23:03.796Z,17.6
2022-12-25T12:24:14.460Z,17.6
2022-12-25T12:25:05.902Z,17.6
2022-12-25T12:26:00.975Z,17.6
2022-12-25T12:27:03.514Z,17.6
2022-12-25T12:28:05.329Z,13.3
2022-12-25T12:29:01.980Z,13.3
2022-12-25T12:30:01.190Z,13.3
2022-12-25T12:31:04.122Z,13.3
2022-12-25T12:32:03.763Z,13.3
2022-12-25T12:33:03.913Z,12.4
2022-12-25T12:34:00.931Z,12.4
2022-12-25T12:35:14.732Z,12.4
2022-12-25T12:36:02.708Z,12.4
2022-12-25T12:37:05.545Z,12.4
2022-12-25T12:38:09.654Z,12.4
2022-12-25T12:39:00.361Z,12.4
2022-12-25T12:40:01.678Z,12.4
2022-12-25T12:41:03.023Z,12.4
2022-12-25T12:42:00.641Z,12.4
2022-12-25T12:43:00.918Z,13.0
2022-12-25T12:44:03.901Z,13.0
2022-12-25T12:45:15.487Z,13.0
2022-12-25T12:46:07.011Z,13.0
2022-12-25T12:47:00.259Z,13.0
2022-12-25T12:48:01.555Z,14.8
2022-12-25T12:49:10.368Z,14.8
2022-12-25T12:50:00.835Z,14.8
2022-12-25T12:51:02.955Z,14.8
2022-12-25T12:52:15.228Z,14.8
2022-12-25T12:53:17.558Z,16.1
2022-12-25T12:54:14.848Z,16.1
2022-12-25T12:55:03.368Z,16.1
2022-12-25T12:56:13.166Z,16.1
2022-12-25T12:57:04.223Z,16.1
2022-12-25T12:58:02.786Z,16.7
2022-12-25T12:59:00.313Z,16.7
2022-12-25T13:00:08.128Z,16.7
2022-12-25T13:01:09.449Z,16.7
2022-12-25T13:02:11.380Z,16.7
2022-12-25T13:03:10.347Z,13.3
2022-12-25T13:04:01.249Z,13.3
2022-12-25T13:05:20.180Z,13.3
2022-12-25T13:06:12.781Z,13.3
2022-12-25T13:07:09.684Z,13.3
2022-12-25T13:08:17.722Z,14.5
2022-12-25T13:09:20.136Z,14.5
2022-12-25T13:10:12.293Z,14.5
2022-12-25T13:11:04.691Z,14.5
2022-12-25T13:12:06.566Z,14.5
2022-12-25T13:13:03.823Z,16.6
2022-12-25T13:14:02.010Z,16.6
2022-12-25T13:15:00.253Z,16.6
2022-12-25T13:16:00.572Z,16.6
2022-12-25T13:17:00.454Z,16.6
2022-12-25T13:18:04.439Z,18.3